createdAt,value
2023-02-15T00:01:57.119Z,20.30
2023-02-15T00:04:25.661Z,20.30
2023-02-15T00:06:52.371Z,20.30
2023-02-15T00:09:19.197Z,20.30
2023-02-15T00:11:51.949Z,20.30
2023-02-15T00:14:20.332Z,20.20
2023-02-15T00:16:47.295Z,20.20
2023-02-15T00:19:16.138Z,20.20
2023-02-15T00:21:43.262Z,20.20
2023-02-15T00:24:12.425Z,20.20
2023-02-15T00:26:40.651Z,20.20
2023-02-15T00:29:08.058Z,20.20
2023-02-15T00:31:35.444Z,20.20
2023-02-15T00:34:14.573Z,20.20
2023-02-15T00:36:41.882Z,20.20
2023-02-15T00:39:09.011Z,20.10
2023-02-15T00:41:36.186Z,20.10
2023-02-15T00:44:03.469Z,20.10
2023-02-15T00:46:30.711Z,20.20
2023-02-15T00:48:57.550Z,20.10
2023-02-15T00:51:24.658Z,20.10
2023-02-15T00:53:51.862Z,20.10
2023-02-15T00:56:18.883Z,20.10
2023-02-15T00:58:45.758Z,20.10
2023-02-15T01:01:19.213Z,20.10
2023-02-15T01:03:49.023Z,20.10
2023-02-15T01:06:16.841Z,20.10
2023-02-15T01:08:47.090Z,20.00
2023-02-15T01:11:22.663Z,20.10
2023-02-15T01:13:55.809Z,20.10
2023-02-15T01:16:23.524Z,20.00
2023-02-15T01:18:50.349Z,20.00
2023-02-15T01:21:19.118Z,20.00
2023-02-15T01:23:46.066Z,20.00
2023-02-15T01:26:14.178Z,20.00
2023-02-15T01:28:41.233Z,20.00
2023-02-15T01:31:13.191Z,20.00
2023-02-15T01:33:40.476Z,20.00
2023-02-15T01:36:07.530Z,19.90
2023-02-15T01:38:35.667Z,19.90
2023-02-15T01:41:21.142Z,19.90
2023-02-15T01:43:53.738Z,19.90
2023-02-15T01:46:24.567Z,19.90
2023-02-15T01:49:15.668Z,19.90
2023-02-15T01:51:43.967Z,19.90
2023-02-15T01:54:33.385Z,19.80
2023-02-15T01:57:05.551Z,19.80
2023-02-15T01:59:33.262Z,19.80
2023-02-15T02:02:00.636Z,19.80
2023-02-15T02:04:40.864Z,19.80
2023-02-15T02:07:08.794Z,19.80
2023-02-15T02:09:36.638Z,19.80
2023-02-15T02:12:03.736Z,19.80
2023-02-15T02:14:30.516Z,19.80
2023-02-15T02:17:29.852Z,19.80
2023-02-15T02:20:18.233Z,19.80
2023-02-15T02:23:12.132Z,19.70
2023-02-15T02:26:00.419Z,19.70
2023-02-15T02:28:54.692Z,19.70
2023-02-15T02:32:01.041Z,19.70
2023-02-15T02:34:33.409Z,19.60
2023-02-15T02:37:22.418Z,19.50
2023-02-15T02:40:05.142Z,19.60
2023-02-15T02:43:33.378Z,19.60
2023-02-15T02:46:07.911Z,19.60
2023-02-15T02:48:35.593Z,19.50
2023-02-15T02:51:02.354Z,19.50
2023-02-15T02:53:31.247Z,19.50
2023-02-15T02:56:02.893Z,19.50
2023-02-15T02:58:29.851Z,19.50
2023-02-15T03:01:41.377Z,19.50
2023-02-15T03:04:11.640Z,19.50
2023-02-15T03:06:43.169Z,19.50
2023-02-15T03:09:42.578Z,19.50
2023-02-15T03:12:13.863Z,19.50
2023-02-15T03:14:45.842Z,19.40
2023-02-15T03:17:13.700Z,19.40
2023-02-15T03:19:40.668Z,19.40
2023-02-15T03:22:12.217Z,19.40
2023-02-15T03:24:49.063Z,19.40
2023-02-15T03:27:19.322Z,19.40
2023-02-15T03:29:49.572Z,19.40
2023-02-15T03:32:16.938Z,19.40
2023-02-15T03:34:44.523Z,19.40
2023-02-15T03:37:32.892Z,19.40
2023-02-15T03:40:43.266Z,19.40
2023-02-15T03:43:28.501Z,19.40
2023-02-15T03:45:58.266Z,19.30
2023-02-15T03:48:32.746Z,19.30
2023-02-15T03:51:22.354Z,19.30
2023-02-15T03:53:49.898Z,19.30
2023-02-15T03:56:16.610Z,19.30
2023-02-15T03:59:02.153Z,19.30
2023-02-15T04:01:59.307Z,19.30
2023-02-15T04:04:41.774Z,19.30
2023-02-15T04:07:09.662Z,19.30
2023-02-15T04:09:55.121Z,19.20
2023-02-15T04:12:21.868Z,19.20
2023-02-15T04:15:06.986Z,19.20
2023-02-15T04:17:33.720Z,19.20
2023-02-15T04:20:19.182Z,19.20
2023-02-15T04:23:04.497Z,19.20
2023-02-15T04:25:31.278Z,19.10
2023-02-15T04:27:57.969Z,19.10
2023-02-15T04:30:26.810Z,19.20
2023-02-15T04:32:55.129Z,19.20
2023-02-15T04:35:21.862Z,19.10
2023-02-15T04:37:48.562Z,19.10
2023-02-15T04:40:19.101Z,19.10
2023-02-15T04:42:50.173Z,19.10
2023-02-15T04:45:18.316Z,19.10
2023-02-15T04:47:45.175Z,19.10
2023-02-15T04:50:12.159Z,19.10
2023-02-15T04:52:39.096Z,19.10
2023-02-15T04:55:06.225Z,19.10
2023-02-15T04:57:33.780Z,19.10
2023-02-15T05:00:00.597Z,19.00
2023-02-15T05:02:27.341Z,19.10
2023-02-15T05:04:54.090Z,19.00
2023-02-15T05:07:21.686Z,19.00
2023-02-15T05:09:48.817Z,19.00
2023-02-15T05:12:15.518Z,19.00
2023-02-15T05:14:42.217Z,19.00
2023-02-15T05:17:09.729Z,19.00
2023-02-15T05:19:36.435Z,19.00
2023-02-15T05:22:03.243Z,19.00
2023-02-15T05:24:48.485Z,19.00
2023-02-15T05:27:33.819Z,19.00
2023-02-15T05:30:00.662Z,18.90
2023-02-15T05:32:27.617Z,18.90
2023-02-15T05:34:54.405Z,18.90
2023-02-15T05:37:21.136Z,18.90
2023-02-15T05:39:47.826Z,18.90
2023-02-15T05:42:14.509Z,18.90
2023-02-15T05:44:41.241Z,18.90
2023-02-15T05:47:08.413Z,18.90
2023-02-15T05:49:35.269Z,18.90
2023-02-15T05:52:03.950Z,18.90
2023-02-15T05:54:30.817Z,18.90
2023-02-15T05:56:57.520Z,18.90
2023-02-15T05:59:24.544Z,18.80
2023-02-15T06:01:51.275Z,18.80
2023-02-15T06:04:18.031Z,18.80
2023-02-15T06:06:44.814Z,18.80
2023-02-15T06:09:13.295Z,18.80
2023-02-15T06:11:40.171Z,18.80
2023-02-15T06:14:06.933Z,18.80
2023-02-15T06:16:33.700Z,18.80
2023-02-15T06:19:02.383Z,18.80
2023-02-15T06:21:30.000Z,18.80
2023-02-15T06:23:56.735Z,18.80
2023-02-15T06:26:23.578Z,18.70
2023-02-15T06:28:51.232Z,18.70
2023-02-15T06:31:18.024Z,18.70
2023-02-15T06:33:44.897Z,18.70
2023-02-15T06:36:11.641Z,18.70
2023-02-15T06:38:38.512Z,18.70
2023-02-15T06:41:05.224Z,18.70
2023-02-15T06:43:31.969Z,18.70
2023-02-15T06:45:59.423Z,18.70
2023-02-15T06:48:26.290Z,18.70
2023-02-15T06:50:53.669Z,18.70
2023-02-15T06:53:20.366Z,18.60
2023-02-15T06:55:47.072Z,18.60
2023-02-15T06:58:13.851Z,18.70
2023-02-15T07:00:40.540Z,18.60
2023-02-15T07:03:07.247Z,18.60
2023-02-15T07:05:35.471Z,18.60
2023-02-15T07:08:02.562Z,18.60
2023-02-15T07:10:29.696Z,18.60
2023-02-15T07:12:56.691Z,18.50
2023-02-15T07:15:23.560Z,18.60
2023-02-15T07:17:50.815Z,18.60
2023-02-15T07:20:20.929Z,18.60
2023-02-15T07:22:48.270Z,18.60
2023-02-15T07:25:15.028Z,18.50
2023-02-15T07:27:41.826Z,18.50
2023-02-15T07:30:11.420Z,18.60
2023-02-15T07:32:58.390Z,18.50
2023-02-15T07:35:25.543Z,18.50
2023-02-15T07:37:53.977Z,18.50
2023-02-15T07:40:23.319Z,18.50
2023-02-15T07:42:54.182Z,18.50
2023-02-15T07:45:22.641Z,18.50
2023-02-15T07:47:49.417Z,18.40
2023-02-15T07:50:16.262Z,18.30
2023-02-15T07:52:43.859Z,18.30
2023-02-15T07:55:13.584Z,18.20
2023-02-15T07:57:47.583Z,18.10
2023-02-15T08:00:16.317Z,18.00
2023-02-15T08:02:43.433Z,18.00
2023-02-15T08:05:10.222Z,18.00
2023-02-15T08:07:37.008Z,18.10
2023-02-15T08:10:03.770Z,18.10
2023-02-15T08:12:30.507Z,18.20
2023-02-15T08:14:57.213Z,18.20
2023-02-15T08:17:24.563Z,18.30
2023-02-15T08:19:51.258Z,18.30
2023-02-15T08:22:17.954Z,18.40
2023-02-15T08:24:44.697Z,18.50
2023-02-15T08:27:12.136Z,18.60
2023-02-15T08:29:40.084Z,18.60
2023-02-15T08:32:10.131Z,18.70
2023-02-15T08:34:39.529Z,18.80
2023-02-15T08:37:06.931Z,18.90
2023-02-15T08:39:33.784Z,18.90
2023-02-15T08:42:00.478Z,19.00
2023-02-15T08:44:27.253Z,19.10
2023-02-15T08:46:54.294Z,19.20
2023-02-15T08:49:22.520Z,19.20
2023-02-15T08:51:50.033Z,19.30
2023-02-15T08:54:18.953Z,19.40
2023-02-15T08:56:46.489Z,19.40
2023-02-15T08:59:18.573Z,19.40
2023-02-15T09:01:46.230Z,19.50
2023-02-15T09:04:14.038Z,19.50
2023-02-15T09:06:41.666Z,19.60
2023-02-15T09:09:08.761Z,19.60
2023-02-15T09:11:40.652Z,19.60
2023-02-15T09:14:14.436Z,19.70
2023-02-15T09:16:44.369Z,19.80
2023-02-15T09:19:11.119Z,19.90
2023-02-15T09:21:39.260Z,19.90
2023-02-15T09:24:11.536Z,20.00
2023-02-15T09:26:43.190Z,20.00
2023-02-15T09:29:11.038Z,20.10
2023-02-15T09:31:45.406Z,20.20
2023-02-15T09:34:13.769Z,20.30
2023-02-15T09:36:41.320Z,20.30
2023-02-15T09:39:14.540Z,20.40
2023-02-15T09:42:06.466Z,20.40
2023-02-15T09:45:11.046Z,20.50
2023-02-15T09:48:07.993Z,20.60
2023-02-15T09:50:48.079Z,20.60
2023-02-15T09:53:39.000Z,20.70
2023-02-15T09:56:38.394Z,20.80
2023-02-15T09:59:11.947Z,20.80
2023-02-15T10:01:57.745Z,20.90
2023-02-15T10:04:48.732Z,21.00
2023-02-15T10:08:07.126Z,21.00
2023-02-15T10:10:42.273Z,21.10
2023-02-15T10:13:51.532Z,21.20
2023-02-15T10:16:47.511Z,21.30
2023-02-15T10:19:28.708Z,21.30
2023-02-15T10:22:11.460Z,21.40
2023-02-15T10:24:48.502Z,21.40
2023-02-15T10:27:22.769Z,21.50
2023-02-15T10:30:04.083Z,21.50
2023-02-15T10:32:33.188Z,21.60
2023-02-15T10:35:18.760Z,21.60
2023-02-15T10:38:11.679Z,21.60
2023-02-15T10:41:01.474Z,21.70
2023-02-15T10:43:39.953Z,21.70
2023-02-15T10:46:24.924Z,21.70
2023-02-15T10:49:36.931Z,21.70
2023-02-15T10:52:31.494Z,21.80
2023-02-15T10:55:12.749Z,21.80
2023-02-15T10:58:02.936Z,21.80
2023-02-15T11:01:08.889Z,21.90
2023-02-15T11:04:17.133Z,21.90
2023-02-15T11:06:54.279Z,21.90
2023-02-15T11:09:23.657Z,21.80
2023-02-15T11:11:52.643Z,21.80
2023-02-15T11:14:26.865Z,21.90
2023-02-15T11:16:58.251Z,21.90
2023-02-15T11:19:33.119Z,21.90
2023-02-15T11:22:02.515Z,21.90
2023-02-15T11:24:32.068Z,21.90
2023-02-15T11:27:05.855Z,21.90
2023-02-15T11:29:38.712Z,21.90
2023-02-15T11:32:24.847Z,21.90
2023-02-15T11:35:06.142Z,21.90
2023-02-15T11:37:49.721Z,21.90
2023-02-15T11:40:23.106Z,21.90
2023-02-15T11:42:53.397Z,21.90
2023-02-15T11:45:34.001Z,22.00
2023-02-15T11:48:01.148Z,22.00
2023-02-15T11:50:33.081Z,22.00
2023-02-15T11:53:02.981Z,22.00
2023-02-15T11:55:30.190Z,22.00
2023-02-15T11:58:18.345Z,22.00
2023-02-15T12:00:47.737Z,22.00
2023-02-15T12:03:24.266Z,22.00
2023-02-15T12:05:54.728Z,22.00
2023-02-15T12:08:22.188Z,22.00
2023-02-15T12:11:08.268Z,22.00
2023-02-15T12:13:35.020Z,22.00
2023-02-15T12:16:09.235Z,22.00
2023-02-15T12:18:45.342Z,22.10
2023-02-15T12:21:34.005Z,22.10
2023-02-15T12:24:17.775Z,22.20
2023-02-15T12:26:44.576Z,22.20
2023-02-15T12:29:17.982Z,22.20
2023-02-15T12:31:47.101Z,22.30
2023-02-15T12:34:17.063Z,22.30
2023-02-15T12:36:50.773Z,22.30
2023-02-15T12:39:23.432Z,22.30
2023-02-15T12:41:56.298Z,22.30
2023-02-15T12:44:26.872Z,22.40
2023-02-15T12:47:19.336Z,22.40
2023-02-15T12:50:17.698Z,22.50
2023-02-15T12:52:47.169Z,22.60
2023-02-15T12:55:28.170Z,22.50
2023-02-15T12:58:18.603Z,22.50
2023-02-15T13:00:46.667Z,22.50
2023-02-15T13:03:22.520Z,22.50
2023-02-15T13:05:54.307Z,22.60
2023-02-15T13:08:30.533Z,22.50
2023-02-15T13:10:59.907Z,22.60
2023-02-15T13:13:32.571Z,22.60
2023-02-15T13:16:02.977Z,22.70
2023-02-15T13:18:37.120Z,22.70
2023-02-15T13:21:13.964Z,22.70
2023-02-15T13:23:53.323Z,22.70
2023-02-15T13:26:22.590Z,22.80
2023-02-15T13:28:53.884Z,22.70
2023-02-15T13:31:23.929Z,22.70
2023-02-15T13:34:10.443Z,22.70
2023-02-15T13:36:49.061Z,22.70
2023-02-15T13:39:36.222Z,22.70
2023-02-15T13:42:24.254Z,22.70
2023-02-15T13:45:23.223Z,22.80
2023-02-15T13:48:08.549Z,22.80
2023-02-15T13:50:51.602Z,22.60
2023-02-15T13:54:01.058Z,22.50
2023-02-15T13:56:56.499Z,22.60
2023-02-15T13:59:35.250Z,22.60
2023-02-15T14:02:20.064Z,22.60
2023-02-15T14:05:11.140Z,22.60
2023-02-15T14:07:54.773Z,22.60
2023-02-15T14:10:21.455Z,22.50
2023-02-15T14:13:05.222Z,22.50
2023-02-15T14:15:39.757Z,22.50
2023-02-15T14:18:32.570Z,22.50
2023-02-15T14:21:08.173Z,22.50
2023-02-15T14:23:56.564Z,22.40
2023-02-15T14:26:32.704Z,22.30
2023-02-15T14:29:17.386Z,22.30
2023-02-15T14:31:50.500Z,22.30
2023-02-15T14:34:28.644Z,22.30
2023-02-15T14:36:56.391Z,22.20
2023-02-15T14:39:53.843Z,22.20
2023-02-15T14:42:50.250Z,22.20
2023-02-15T14:45:43.754Z,22.20
2023-02-15T14:48:16.721Z,22.10
2023-02-15T14:50:45.642Z,22.10
2023-02-15T14:53:27.860Z,22.00
2023-02-15T14:56:09.388Z,22.10
2023-02-15T14:58:39.163Z,22.10
2023-02-15T15:01:10.911Z,22.00
2023-02-15T15:03:38.512Z,22.00
2023-02-15T15:06:06.202Z,22.00
2023-02-15T15:08:37.630Z,22.00
2023-02-15T15:11:44.778Z,22.00
2023-02-15T15:14:34.286Z,22.00
2023-02-15T15:17:02.876Z,22.00
2023-02-15T15:19:52.292Z,21.90
2023-02-15T15:22:27.018Z,21.90
2023-02-15T15:24:58.853Z,21.90
2023-02-15T15:27:44.524Z,21.80
2023-02-15T15:30:14.398Z,21.90
2023-02-15T15:32:59.278Z,21.80
2023-02-15T15:35:39.201Z,21.80
2023-02-15T15:38:28.360Z,21.70
2023-02-15T15:41:29.059Z,21.70
2023-02-15T15:44:29.842Z,21.70
2023-02-15T15:47:28.638Z,21.70
2023-02-15T15:49:59.587Z,21.60
2023-02-15T15:52:27.493Z,21.50
2023-02-15T15:54:58.840Z,21.50
2023-02-15T15:57:34.258Z,21.50
2023-02-15T16:00:01.085Z,21.50
2023-02-15T16:02:28.502Z,21.40
2023-02-15T16:04:55.278Z,21.40
2023-02-15T16:07:25.891Z,21.40
2023-02-15T16:09:59.492Z,21.40
2023-02-15T16:12:28.852Z,21.40
2023-02-15T16:14:55.634Z,21.40
2023-02-15T16:17:26.323Z,21.40
2023-02-15T16:20:00.999Z,21.30
2023-02-15T16:22:28.877Z,21.30
2023-02-15T16:25:04.258Z,21.40
2023-02-15T16:27:35.985Z,21.40
2023-02-15T16:30:21.439Z,21.40
2023-02-15T16:32:48.347Z,21.50
2023-02-15T16:35:17.903Z,21.50
2023-02-15T16:37:45.058Z,21.50
2023-02-15T16:40:29.981Z,21.60
2023-02-15T16:43:01.568Z,21.60
2023-02-15T16:45:29.119Z,21.60
2023-02-15T16:47:58.666Z,21.60
2023-02-15T16:50:49.447Z,21.60
2023-02-15T16:53:21.540Z,21.70
2023-02-15T16:55:55.474Z,21.70
2023-02-15T16:58:27.977Z,21.70
2023-02-15T17:01:02.507Z,21.70
2023-02-15T17:03:30.275Z,21.80
2023-02-15T17:06:02.510Z,21.70
2023-02-15T17:08:42.692Z,21.80
2023-02-15T17:11:19.875Z,21.80
2023-02-15T17:14:05.712Z,21.80
2023-02-15T17:16:45.577Z,21.80
2023-02-15T17:19:18.887Z,21.70
2023-02-15T17:21:57.188Z,21.70
2023-02-15T17:24:36.094Z,21.70
2023-02-15T17:27:18.155Z,21.70
2023-02-15T17:29:48.154Z,21.70
2023-02-15T17:32:24.294Z,21.60
2023-02-15T17:35:05.949Z,21.70
2023-02-15T17:37:44.722Z,21.70
2023-02-15T17:40:26.468Z,21.60
2023-02-15T17:42:53.536Z,21.60
2023-02-15T17:45:20.877Z,21.60
2023-02-15T17:47:50.069Z,21.60
2023-02-15T17:50:18.817Z,21.60
2023-02-15T17:52:45.689Z,21.50
2023-02-15T17:55:36.589Z,21.40
2023-02-15T17:58:22.977Z,21.40
2023-02-15T18:01:16.431Z,21.50
2023-02-15T18:04:08.491Z,21.40
2023-02-15T18:06:55.556Z,21.50
2023-02-15T18:09:42.064Z,21.40
2023-02-15T18:12:24.376Z,21.40
2023-02-15T18:14:51.799Z,21.40
2023-02-15T18:17:19.078Z,21.40
2023-02-15T18:19:46.760Z,21.40
2023-02-15T18:22:15.878Z,21.40
2023-02-15T18:24:43.867Z,21.40
2023-02-15T18:27:12.544Z,21.40
2023-02-15T18:29:39.272Z,21.40
2023-02-15T18:32:29.359Z,21.40
2023-02-15T18:34:58.007Z,21.40
2023-02-15T18:37:27.281Z,21.40
2023-02-15T18:39:56.862Z,21.40
2023-02-15T18:42:28.917Z,21.30
2023-02-15T18:44:58.190Z,21.20
2023-02-15T18:47:24.891Z,21.30
2023-02-15T18:49:51.609Z,21.20
2023-02-15T18:52:30.064Z,21.10
2023-02-15T18:55:02.275Z,21.20
2023-02-15T18:57:29.371Z,21.20
2023-02-15T18:59:56.439Z,21.20
2023-02-15T19:02:23.247Z,21.30
2023-02-15T19:04:50.040Z,21.30
2023-02-15T19:07:20.281Z,21.20
2023-02-15T19:09:51.295Z,21.20
2023-02-15T19:12:19.584Z,21.20
2023-02-15T19:14:46.694Z,21.10
2023-02-15T19:17:18.468Z,21.10
2023-02-15T19:19:46.129Z,21.10
2023-02-15T19:22:18.304Z,21.10
2023-02-15T19:24:46.192Z,21.10
2023-02-15T19:27:31.971Z,21.00
2023-02-15T19:29:59.699Z,21.10
2023-02-15T19:32:27.705Z,21.00
2023-02-15T19:34:54.447Z,21.00
2023-02-15T19:37:32.249Z,21.10
2023-02-15T19:39:59.026Z,21.10
2023-02-15T19:42:25.739Z,21.10
2023-02-15T19:44:54.340Z,21.10
2023-02-15T19:47:21.922Z,21.10
2023-02-15T19:49:48.692Z,21.10
2023-02-15T19:52:20.517Z,21.10
2023-02-15T19:54:48.635Z,21.10
2023-02-15T19:57:15.378Z,21.10
2023-02-15T19:59:42.539Z,21.10
2023-02-15T20:02:14.530Z,21.10
2023-02-15T20:04:41.539Z,21.10
2023-02-15T20:07:24.588Z,21.10
2023-02-15T20:09:51.370Z,21.20
2023-02-15T20:12:23.801Z,21.10
2023-02-15T20:14:52.369Z,21.20
2023-02-15T20:17:19.092Z,21.10
2023-02-15T20:19:46.126Z,21.10
2023-02-15T20:22:33.685Z,21.10
2023-02-15T20:25:01.165Z,21.20
2023-02-15T20:27:28.688Z,21.10
2023-02-15T20:29:56.730Z,21.10
2023-02-15T20:32:24.088Z,21.10
2023-02-15T20:34:50.980Z,21.10
2023-02-15T20:37:29.438Z,21.10
2023-02-15T20:39:56.225Z,21.10
2023-02-15T20:42:23.033Z,21.10
2023-02-15T20:44:49.791Z,21.10
2023-02-15T20:47:16.483Z,21.10
2023-02-15T20:49:43.195Z,21.10
2023-02-15T20:52:20.623Z,21.10
2023-02-15T20:54:47.717Z,21.10
2023-02-15T20:57:14.482Z,21.10
2023-02-15T20:59:42.626Z,21.10
2023-02-15T21:02:22.877Z,21.10
2023-02-15T21:04:49.781Z,21.10
2023-02-15T21:07:17.890Z,21.10
2023-02-15T21:09:45.387Z,21.00
2023-02-15T21:12:17.475Z,21.00
2023-02-15T21:14:44.552Z,21.00
2023-02-15T21:17:16.563Z,21.00
2023-02-15T21:19:43.480Z,21.00
2023-02-15T21:22:14.730Z,20.90
2023-02-15T21:24:50.390Z,21.00
2023-02-15T21:27:17.294Z,20.90
2023-02-15T21:29:43.998Z,20.90
2023-02-15T21:32:11.064Z,20.90
2023-02-15T21:34:37.950Z,20.90
2023-02-15T21:37:05.079Z,20.90
2023-02-15T21:39:32.608Z,20.80
2023-02-15T21:42:18.006Z,20.80
2023-02-15T21:45:03.439Z,20.80
2023-02-15T21:47:50.239Z,20.80
2023-02-15T21:50:38.062Z,20.80
2023-02-15T21:53:06.415Z,20.70
2023-02-15T21:55:33.449Z,20.70
2023-02-15T21:58:00.865Z,20.70
2023-02-15T22:00:28.840Z,20.70
2023-02-15T22:02:58.229Z,20.70
2023-02-15T22:05:26.991Z,20.70
2023-02-15T22:07:53.708Z,20.60
2023-02-15T22:10:22.739Z,20.50
2023-02-15T22:12:50.282Z,20.50
2023-02-15T22:15:22.895Z,20.50
2023-02-15T22:17:49.954Z,20.60
2023-02-15T22:20:20.515Z,20.50
2023-02-15T22:22:47.958Z,20.50
2023-02-15T22:25:16.526Z,20.50
2023-02-15T22:27:44.498Z,20.50
2023-02-15T22:30:29.112Z,20.50
2023-02-15T22:32:57.548Z,20.60
2023-02-15T22:35:32.439Z,20.50
2023-02-15T22:37:59.447Z,20.50
2023-02-15T22:40:29.440Z,20.50
2023-02-15T22:42:57.402Z,20.50
2023-02-15T22:45:25.456Z,20.40
2023-02-15T22:47:54.624Z,20.40
2023-02-15T22:50:26.157Z,20.50
2023-02-15T22:52:52.972Z,20.50
2023-02-15T22:55:22.301Z,20.40
2023-02-15T22:57:51.742Z,20.50
2023-02-15T23:00:20.683Z,20.40
2023-02-15T23:02:47.602Z,20.40
2023-02-15T23:05:23.388Z,20.40
2023-02-15T23:07:50.470Z,20.40
2023-02-15T23:10:21.509Z,20.40
2023-02-15T23:13:08.717Z,20.40
2023-02-15T23:15:36.111Z,20.40
2023-02-15T23:18:28.124Z,20.30
2023-02-15T23:21:00.709Z,20.40
2023-02-15T23:23:29.126Z,20.30
2023-02-15T23:25:56.302Z,20.30
2023-02-15T23:28:33.206Z,20.30
2023-02-15T23:31:00.196Z,20.30
2023-02-15T23:33:31.394Z,20.30
2023-02-15T23:35:58.824Z,20.30
2023-02-15T23:38:30.623Z,20.30
2023-02-15T23:41:20.524Z,20.20
2023-02-15T23:43:52.760Z,20.30
2023-02-15T23:46:24.033Z,20.30
2023-02-15T23:48:51.032Z,20.20
2023-02-15T23:51:18.344Z,20.20
2023-02-15T23:53:45.270Z,20.20
2023-02-15T23:56:15.356Z,20.20
2023-02-15T23:58:44.190Z,20.20
